X  Close Metar Aviation Weather Data     KNPA Naval Air Station Pensacola Forrest Sherman Field
Temperature
46°F Temperature
28°F Dewpoint
50% Humidity



Wind
6 MPH
10 KM/H
3 M/S
5 KTS



Calm
North
Current Conditions

Mostly Scattered Clouds Mostly Scattered Clouds
Pressure 1023.72 (hPa) - 30.23 (inHg)
Visibility 10 (mile) - 16.1 (km)
Airport
Airport-code KNPA

Location: Naval Air Station Pensacola Forrest Sherman Field
Distance: 14 (mi)

Metar:
KNPA 270256Z VRB05KT 10SM SCT250 08/M02 A3023 RMK SLP238 LAST T00781022 50012

Time: 26-01-2022 20:56 CST